Ns Clipper — A8GW6 — position and weather

sailwx.info

Track history (hours):
 
Tides and Currents Weather Stations Pressure Air Temp Water Temp Dewpoint Dewpoint Depression Visibility Wind Speed Wind Dir Waves Ship Positions

Ns Clipper

Last reported at 2015-Aug-21 02:27 UTC. Time now 2015-Sep-02 10:36 UTC.
Position N 51°33' E 002°19'.
Warning: this ship's position is 12 days out of date.

Length 243 m; draft 8.7 m.

Type: Tanker. MMSI: 636012661.

Date/timePositionNaut miles runAvg speedWind from/ knotsBaromVisibWave heightAir tempDewpointWater temp
2015-Aug-21 02:27N 51°33' E 002°19'1112.6
2015-Aug-21 01:33N 51°23' E 002°11'1111.5
2015-Aug-21 00:33N 51°13' E 002°01'1111.1
2015-Aug-20 23:33N 51°07' E 001°46'1010.4
2015-Aug-20 22:33N 50°59' E 001°35'1010.2
2015-Aug-20 21:33N 50°51' E 001°25'1110.8
2015-Aug-20 20:33N 50°41' E 001°19'8410.3
2015-Aug-20 12:24N 50°34' W 000°54'8 9.3
2015-Aug-20 11:33N 50°42' W 000°58'1312.9
2015-Aug-20 10:33N 50°47' W 001°17'4 1.9
2015-Aug-20 08:25N 50°50' W 001°20'0 0.0
2015-Aug-20 07:28N 50°50' W 001°20'0 0.0
2015-Aug-20 05:28N 50°50' W 001°20'0 0.0
2015-Aug-20 00:04N 50°50' W 001°20'0 0.0
2015-Aug-19 23:10N 50°50' W 001°20'0 0.0
2015-Aug-19 19:04N 50°50' W 001°20'0 0.0
2015-Aug-19 16:28N 50°50' W 001°20'0 0.0
2015-Aug-19 15:28N 50°50' W 001°20'0 0.0
2015-Aug-19 14:04N 50°50' W 001°20'0 0.0
2015-Aug-19 09:16N 50°50' W 001°20'0 0.0
2015-Aug-19 08:22N 50°50' W 001°20'0 0.0
2015-Aug-19 07:28N 50°50' W 001°20'0 0.0
2015-Aug-19 04:16N 50°50' W 001°20'0 0.0
2015-Aug-18 19:22N 50°50' W 001°20'0 0.0
2015-Aug-18 17:28N 50°50' W 001°20'0 0.0
2015-Aug-18 16:28N 50°50' W 001°20'0 0.0
2015-Aug-18 15:04N 50°50' W 001°20'0 0.0
2015-Aug-18 13:33N 50°50' W 001°20'1 1.4
2015-Aug-18 12:33N 50°49' W 001°18'6 6.2
2015-Aug-18 11:33N 50°46' W 001°10'9 9.3
2015-Aug-18 10:33N 50°41' W 000°57'7 6.6
2015-Aug-18 09:33N 50°35' W 000°58'2 2.1
2015-Aug-18 08:31N 50°34' W 001°02'0 0.1
2015-Aug-18 07:22N 50°34' W 001°02'0 0.3
2015-Aug-18 06:31N 50°34' W 001°02'0 0.0
2015-Aug-18 05:31N 50°34' W 001°02'0 0.0
2015-Aug-18 04:31N 50°34' W 001°02'0 0.0
2015-Aug-18 04:10N 50°34' W 001°02'0 0.1
2015-Aug-18 04:04N 50°34' W 001°02'0 0.0
2015-Aug-18 03:31N 50°34' W 001°02'0 0.0
2015-Aug-18 02:31N 50°34' W 001°02'0 0.0
2015-Aug-18 01:31N 50°34' W 001°02'0 0.3
2015-Aug-18 00:31N 50°34' W 001°02'0 0.1
2015-Aug-17 23:31N 50°34' W 001°02'0 0.0
2015-Aug-17 22:31N 50°34' W 001°02'0 0.0
2015-Aug-17 21:31N 50°34' W 001°02'0 0.1
2015-Aug-17 20:31N 50°34' W 001°02'0 0.0
2015-Aug-17 19:31N 50°34' W 001°02'0 0.3
2015-Aug-17 18:19N 50°34' W 001°02'0 0.0
2015-Aug-17 15:31N 50°34' W 001°02'0 0.1
2015-Aug-17 11:25N 50°34' W 001°02'0 0.0
2015-Aug-16 21:19N 50°34' W 001°02'0 0.0
2015-Aug-16 20:31N 50°34' W 001°02'0 0.0
2015-Aug-16 19:25N 50°34' W 001°02'0 0.2
2015-Aug-16 18:28N 50°34' W 001°02'0 0.1
2015-Aug-16 16:31N 50°34' W 001°02'0 0.0
2015-Aug-16 15:31N 50°34' W 001°02'0 0.0
2015-Aug-16 14:31N 50°34' W 001°02'0 0.0
2015-Aug-16 13:31N 50°34' W 001°02'0 0.1
2015-Aug-16 11:28N 50°34' W 001°02'0 0.0
2015-Aug-16 10:19N 50°34' W 001°02'0 0.0
2015-Aug-16 08:13N 50°34' W 001°02'0 0.1
2015-Aug-16 06:25N 50°34' W 001°02'0 0.4
2015-Aug-16 05:31N 50°34' W 001°02'0 0.0
2015-Aug-16 04:31N 50°34' W 001°02'0 0.0
2015-Aug-16 03:31N 50°34' W 001°02'0 0.0
2015-Aug-16 02:28N 50°34' W 001°02'0 0.0
2015-Aug-16 01:31N 50°34' W 001°02'0 0.0
2015-Aug-16 00:31N 50°34' W 001°02'0 0.2
2015-Aug-15 23:07N 50°34' W 001°02'0 0.0
2015-Aug-15 20:31N 50°34' W 001°02'0 0.0
2015-Aug-15 19:25N 50°34' W 001°02'0 0.1
2015-Aug-15 18:25N 50°34' W 001°02'0 0.2
2015-Aug-15 17:31N 50°34' W 001°02'0 0.2
2015-Aug-15 16:31N 50°34' W 001°02'0 0.0
2015-Aug-15 14:31N 50°34' W 001°02'0 0.1
2015-Aug-15 11:31N 50°34' W 001°02'0 0.1
2015-Aug-15 10:31N 50°34' W 001°02'0 0.0
2015-Aug-15 09:31N 50°34' W 001°02'0 0.0
2015-Aug-15 06:31N 50°34' W 001°02'0 0.2
2015-Aug-15 05:25N 50°34' W 001°02'0 0.2
2015-Aug-15 04:31N 50°34' W 001°02'0 0.0
2015-Aug-15 03:31N 50°34' W 001°02'0 0.0
2015-Aug-15 01:31N 50°34' W 001°02'0 0.0
2015-Aug-15 00:31N 50°34' W 001°02'0 0.1
2015-Aug-14 21:31N 50°34' W 001°02'0 0.0
2015-Aug-14 18:25N 50°34' W 001°02'0 0.1
2015-Aug-14 17:25N 50°34' W 001°02'0 0.3
2015-Aug-14 16:19N 50°34' W 001°02'0 0.0
2015-Aug-14 15:10N 50°34' W 001°02'0 0.0
2015-Aug-14 14:31N 50°34' W 001°02'0 0.0
2015-Aug-14 13:31N 50°34' W 001°02'0 0.1
2015-Aug-14 09:31N 50°34' W 001°02'0 0.0
2015-Aug-14 07:25N 50°34' W 001°02'0 0.1
2015-Aug-14 02:31N 50°34' W 001°02'0 0.0
2015-Aug-14 01:22N 50°34' W 001°02'0 0.1
2015-Aug-13 22:07N 50°34' W 001°02'0 0.0
2015-Aug-13 19:19N 50°34' W 001°02'0 0.1
2015-Aug-13 14:33N 50°34' W 001°02'4 3.6
2015-Aug-13 13:33N 50°34' W 000°57'1211.3
2015-Aug-13 12:31N 50°31' W 000°39'2512.7
2015-Aug-13 10:33N 50°33' W 000°00'1211.7
2015-Aug-13 09:33N 50°35' E 000°18'1111.0
2015-Aug-13 08:33N 50°38' E 000°35'1111.3
2015-Aug-13 07:33N 50°44' E 000°50'1312.9
2015-Aug-13 06:33N 50°52' E 001°05'1414.5
2015-Aug-13 05:33N 51°02' E 001°23'1514.6
2015-Aug-13 04:33N 51°11' E 001°40'1312.6
2015-Aug-13 03:33N 51°22' E 001°51'1111.1
2015-Aug-13 02:33N 51°31' E 002°01'1110.9
2015-Aug-13 01:33N 51°39' E 002°13'1110.6
2015-Aug-13 00:34N 51°47' E 002°25'1110.7
2015-Aug-12 23:34N 51°55' E 002°35'1111.0
2015-Aug-12 22:34N 52°06' E 002°38'1312.9
2015-Aug-12 21:33N 52°19' E 002°38'1413.4
2015-Aug-12 20:29N 52°33' E 002°38'1813.8
2015-Aug-12 19:12N 52°51' E 002°38'913.8
2015-Aug-12 18:34N 52°60' E 002°38'3411.3
2015-Aug-12 15:33N 53°34' E 002°41'4011.6
2015-Aug-12 12:07N 53°55' E 001°45'3211.1
2015-Aug-12 09:15N 54°11' E 000°58'811.2
2015-Aug-12 08:33N 54°14' E 000°46'1111.5
2015-Aug-12 07:33N 54°20' E 000°29'1111.5
2015-Aug-12 06:33N 54°25' E 000°11'1111.2
2015-Aug-12 05:34N 54°33' W 000°03'1212.4
2015-Aug-12 04:34N 54°44' W 000°12'1312.8
2015-Aug-12 03:33N 54°56' W 000°21'1413.1
2015-Aug-12 02:29N 55°08' W 000°32'1613.2
2015-Aug-12 01:18N 55°23' W 000°43'1013.1
2015-Aug-12 00:33N 55°31' W 000°51'4812.0
2015-Aug-11 20:33N 56°01' W 001°59'1111.5
2015-Aug-11 19:33N 56°05' W 002°18'1111.4
2015-Aug-11 18:33N 56°08' W 002°38'1211.9
2015-Aug-11 17:33N 56°04' W 002°58'8 8.2
2015-Aug-11 16:33N 56°02' W 003°12'5 5.3
2015-Aug-11 15:34N 56°01' W 003°21'0 0.0
2015-Aug-11 14:31N 56°00' W 003°21'0 0.0
2015-Aug-11 13:31N 56°00' W 003°21'0 0.0
2015-Aug-11 12:31N 56°00' W 003°21'0 0.0
2015-Aug-11 11:31N 56°00' W 003°21'0 0.0
2015-Aug-11 10:22N 56°00' W 003°21'0 0.0
2015-Aug-11 09:22N 56°00' W 003°21'0 0.0
2015-Aug-11 08:25N 56°00' W 003°21'0 0.0
2015-Aug-11 07:25N 56°00' W 003°21'0 0.0
2015-Aug-11 06:25N 56°00' W 003°21'0 0.0
2015-Aug-11 05:28N 56°00' W 003°21'0 0.0
2015-Aug-11 04:28N 56°00' W 003°21'0 0.0
2015-Aug-11 03:31N 56°00' W 003°21'0 0.0
2015-Aug-11 02:31N 56°00' W 003°21'  
Track history (hours):
 
Tides and Currents Weather Stations Pressure Air Temp Water Temp Dewpoint Dewpoint Depression Visibility Wind Speed Wind Dir Waves Ship Positions

Ns Clipper

Last reported at 2015-Aug-21 02:27 UTC. Time now 2015-Sep-02 10:36 UTC.
Position N 51°33' E 002°19'.
Warning: this ship's position is 12 days out of date.

Length 243 m; draft 8.7 m.

Type: Tanker. MMSI: 636012661.

Date/timePositionNaut miles runAvg speedWind from/ knotsBaromVisibWave heightAir tempDewpointWater temp
2015-Aug-21 02:27N 51°33' E 002°19'1112.6
2015-Aug-21 01:33N 51°23' E 002°11'1111.5
2015-Aug-21 00:33N 51°13' E 002°01'1111.1
2015-Aug-20 23:33N 51°07' E 001°46'1010.4
2015-Aug-20 22:33N 50°59' E 001°35'1010.2
2015-Aug-20 21:33N 50°51' E 001°25'1110.8
2015-Aug-20 20:33N 50°41' E 001°19'8410.3
2015-Aug-20 12:24N 50°34' W 000°54'8 9.3
2015-Aug-20 11:33N 50°42' W 000°58'1312.9
2015-Aug-20 10:33N 50°47' W 001°17'4 1.9
2015-Aug-20 08:25N 50°50' W 001°20'0 0.0
2015-Aug-20 07:28N 50°50' W 001°20'0 0.0
2015-Aug-20 05:28N 50°50' W 001°20'0 0.0
2015-Aug-20 00:04N 50°50' W 001°20'0 0.0
2015-Aug-19 23:10N 50°50' W 001°20'0 0.0
2015-Aug-19 19:04N 50°50' W 001°20'0 0.0
2015-Aug-19 16:28N 50°50' W 001°20'0 0.0
2015-Aug-19 15:28N 50°50' W 001°20'0 0.0
2015-Aug-19 14:04N 50°50' W 001°20'0 0.0
2015-Aug-19 09:16N 50°50' W 001°20'0 0.0
2015-Aug-19 08:22N 50°50' W 001°20'0 0.0
2015-Aug-19 07:28N 50°50' W 001°20'0 0.0
2015-Aug-19 04:16N 50°50' W 001°20'0 0.0
2015-Aug-18 19:22N 50°50' W 001°20'0 0.0
2015-Aug-18 17:28N 50°50' W 001°20'0 0.0
2015-Aug-18 16:28N 50°50' W 001°20'0 0.0
2015-Aug-18 15:04N 50°50' W 001°20'0 0.0
2015-Aug-18 13:33N 50°50' W 001°20'1 1.4
2015-Aug-18 12:33N 50°49' W 001°18'6 6.2
2015-Aug-18 11:33N 50°46' W 001°10'9 9.3
2015-Aug-18 10:33N 50°41' W 000°57'7 6.6
2015-Aug-18 09:33N 50°35' W 000°58'2 2.1
2015-Aug-18 08:31N 50°34' W 001°02'0 0.1
2015-Aug-18 07:22N 50°34' W 001°02'0 0.3
2015-Aug-18 06:31N 50°34' W 001°02'0 0.0
2015-Aug-18 05:31N 50°34' W 001°02'0 0.0
2015-Aug-18 04:31N 50°34' W 001°02'0 0.0
2015-Aug-18 04:10N 50°34' W 001°02'0 0.1
2015-Aug-18 04:04N 50°34' W 001°02'0 0.0
2015-Aug-18 03:31N 50°34' W 001°02'0 0.0
2015-Aug-18 02:31N 50°34' W 001°02'0 0.0
2015-Aug-18 01:31N 50°34' W 001°02'0 0.3
2015-Aug-18 00:31N 50°34' W 001°02'0 0.1
2015-Aug-17 23:31N 50°34' W 001°02'0 0.0
2015-Aug-17 22:31N 50°34' W 001°02'0 0.0
2015-Aug-17 21:31N 50°34' W 001°02'0 0.1
2015-Aug-17 20:31N 50°34' W 001°02'0 0.0
2015-Aug-17 19:31N 50°34' W 001°02'0 0.3
2015-Aug-17 18:19N 50°34' W 001°02'0 0.0
2015-Aug-17 15:31N 50°34' W 001°02'0 0.1
2015-Aug-17 11:25N 50°34' W 001°02'0 0.0
2015-Aug-16 21:19N 50°34' W 001°02'0 0.0
2015-Aug-16 20:31N 50°34' W 001°02'0 0.0
2015-Aug-16 19:25N 50°34' W 001°02'0 0.2
2015-Aug-16 18:28N 50°34' W 001°02'0 0.1
2015-Aug-16 16:31N 50°34' W 001°02'0 0.0
2015-Aug-16 15:31N 50°34' W 001°02'0 0.0
2015-Aug-16 14:31N 50°34' W 001°02'0 0.0
2015-Aug-16 13:31N 50°34' W 001°02'0 0.1
2015-Aug-16 11:28N 50°34' W 001°02'0 0.0
2015-Aug-16 10:19N 50°34' W 001°02'0 0.0
2015-Aug-16 08:13N 50°34' W 001°02'0 0.1
2015-Aug-16 06:25N 50°34' W 001°02'0 0.4
2015-Aug-16 05:31N 50°34' W 001°02'0 0.0
2015-Aug-16 04:31N 50°34' W 001°02'0 0.0
2015-Aug-16 03:31N 50°34' W 001°02'0 0.0
2015-Aug-16 02:28N 50°34' W 001°02'0 0.0
2015-Aug-16 01:31N 50°34' W 001°02'0 0.0
2015-Aug-16 00:31N 50°34' W 001°02'0 0.2
2015-Aug-15 23:07N 50°34' W 001°02'0 0.0
2015-Aug-15 20:31N 50°34' W 001°02'0 0.0
2015-Aug-15 19:25N 50°34' W 001°02'0 0.1
2015-Aug-15 18:25N 50°34' W 001°02'0 0.2
2015-Aug-15 17:31N 50°34' W 001°02'0 0.2
2015-Aug-15 16:31N 50°34' W 001°02'0 0.0
2015-Aug-15 14:31N 50°34' W 001°02'0 0.1
2015-Aug-15 11:31N 50°34' W 001°02'0 0.1
2015-Aug-15 10:31N 50°34' W 001°02'0 0.0
2015-Aug-15 09:31N 50°34' W 001°02'0 0.0
2015-Aug-15 06:31N 50°34' W 001°02'0 0.2
2015-Aug-15 05:25N 50°34' W 001°02'0 0.2
2015-Aug-15 04:31N 50°34' W 001°02'0 0.0
2015-Aug-15 03:31N 50°34' W 001°02'0 0.0
2015-Aug-15 01:31N 50°34' W 001°02'0 0.0
2015-Aug-15 00:31N 50°34' W 001°02'0 0.1
2015-Aug-14 21:31N 50°34' W 001°02'0 0.0
2015-Aug-14 18:25N 50°34' W 001°02'0 0.1
2015-Aug-14 17:25N 50°34' W 001°02'0 0.3
2015-Aug-14 16:19N 50°34' W 001°02'0 0.0
2015-Aug-14 15:10N 50°34' W 001°02'0 0.0
2015-Aug-14 14:31N 50°34' W 001°02'0 0.0
2015-Aug-14 13:31N 50°34' W 001°02'0 0.1
2015-Aug-14 09:31N 50°34' W 001°02'0 0.0
2015-Aug-14 07:25N 50°34' W 001°02'0 0.1
2015-Aug-14 02:31N 50°34' W 001°02'0 0.0
2015-Aug-14 01:22N 50°34' W 001°02'0 0.1
2015-Aug-13 22:07N 50°34' W 001°02'0 0.0
2015-Aug-13 19:19N 50°34' W 001°02'0 0.1
2015-Aug-13 14:33N 50°34' W 001°02'4 3.6
2015-Aug-13 13:33N 50°34' W 000°57'1211.3
2015-Aug-13 12:31N 50°31' W 000°39'2512.7
2015-Aug-13 10:33N 50°33' W 000°00'1211.7
2015-Aug-13 09:33N 50°35' E 000°18'1111.0
2015-Aug-13 08:33N 50°38' E 000°35'1111.3
2015-Aug-13 07:33N 50°44' E 000°50'1312.9
2015-Aug-13 06:33N 50°52' E 001°05'1414.5
2015-Aug-13 05:33N 51°02' E 001°23'1514.6
2015-Aug-13 04:33N 51°11' E 001°40'1312.6
2015-Aug-13 03:33N 51°22' E 001°51'1111.1
2015-Aug-13 02:33N 51°31' E 002°01'1110.9
2015-Aug-13 01:33N 51°39' E 002°13'1110.6
2015-Aug-13 00:34N 51°47' E 002°25'1110.7
2015-Aug-12 23:34N 51°55' E 002°35'1111.0
2015-Aug-12 22:34N 52°06' E 002°38'1312.9
2015-Aug-12 21:33N 52°19' E 002°38'1413.4
2015-Aug-12 20:29N 52°33' E 002°38'1813.8
2015-Aug-12 19:12N 52°51' E 002°38'913.8
2015-Aug-12 18:34N 52°60' E 002°38'3411.3
2015-Aug-12 15:33N 53°34' E 002°41'4011.6
2015-Aug-12 12:07N 53°55' E 001°45'3211.1
2015-Aug-12 09:15N 54°11' E 000°58'811.2
2015-Aug-12 08:33N 54°14' E 000°46'1111.5
2015-Aug-12 07:33N 54°20' E 000°29'1111.5
2015-Aug-12 06:33N 54°25' E 000°11'1111.2
2015-Aug-12 05:34N 54°33' W 000°03'1212.4
2015-Aug-12 04:34N 54°44' W 000°12'1312.8
2015-Aug-12 03:33N 54°56' W 000°21'1413.1
2015-Aug-12 02:29N 55°08' W 000°32'1613.2
2015-Aug-12 01:18N 55°23' W 000°43'1013.1
2015-Aug-12 00:33N 55°31' W 000°51'4812.0
2015-Aug-11 20:33N 56°01' W 001°59'1111.5
2015-Aug-11 19:33N 56°05' W 002°18'1111.4
2015-Aug-11 18:33N 56°08' W 002°38'1211.9
2015-Aug-11 17:33N 56°04' W 002°58'8 8.2
2015-Aug-11 16:33N 56°02' W 003°12'5 5.3
2015-Aug-11 15:34N 56°01' W 003°21'0 0.0
2015-Aug-11 14:31N 56°00' W 003°21'0 0.0
2015-Aug-11 13:31N 56°00' W 003°21'0 0.0
2015-Aug-11 12:31N 56°00' W 003°21'0 0.0
2015-Aug-11 11:31N 56°00' W 003°21'0 0.0
2015-Aug-11 10:22N 56°00' W 003°21'0 0.0
2015-Aug-11 09:22N 56°00' W 003°21'0 0.0
2015-Aug-11 08:25N 56°00' W 003°21'0 0.0
2015-Aug-11 07:25N 56°00' W 003°21'0 0.0
2015-Aug-11 06:25N 56°00' W 003°21'0 0.0
2015-Aug-11 05:28N 56°00' W 003°21'0 0.0
2015-Aug-11 04:28N 56°00' W 003°21'0 0.0
2015-Aug-11 03:31N 56°00' W 003°21'0 0.0
2015-Aug-11 02:31N 56°00' W 003°21'  

Dump ship's entire track history